sensor_id;sensor_type;location;lat;lon;timestamp;P1;durP1;ratioP1;P2;durP2;ratioP2
35977;SDS011;22056;0.000;0.000;2023-07-29T00:00:54;2.35;;;0.50;;
35977;SDS011;22056;0.000;0.000;2023-07-29T00:03:21;1.83;;;0.55;;
35977;SDS011;22056;0.000;0.000;2023-07-29T00:05:47;2.05;;;0.65;;
35977;SDS011;22056;0.000;0.000;2023-07-29T00:08:13;1.67;;;0.60;;
35977;SDS011;22056;0.000;0.000;2023-07-29T00:10:39;2.00;;;0.77;;
35977;SDS011;22056;0.000;0.000;2023-07-29T00:13:06;0.60;;;0.45;;
35977;SDS011;22056;0.000;0.000;2023-07-29T00:15:33;1.52;;;0.70;;
35977;SDS011;22056;0.000;0.000;2023-07-29T00:17:59;1.30;;;0.50;;
35977;SDS011;22056;0.000;0.000;2023-07-29T00:20:25;1.13;;;0.50;;
35977;SDS011;22056;0.000;0.000;2023-07-29T00:22:51;1.08;;;0.40;;
35977;SDS011;22056;0.000;0.000;2023-07-29T00:25:20;1.60;;;0.50;;
35977;SDS011;22056;0.000;0.000;2023-07-29T00:27:47;0.95;;;0.50;;
35977;SDS011;22056;0.000;0.000;2023-07-29T00:30:13;1.13;;;0.70;;
35977;SDS011;22056;0.000;0.000;2023-07-29T00:32:39;0.70;;;0.50;;
35977;SDS011;22056;0.000;0.000;2023-07-29T00:35:05;0.75;;;0.52;;
35977;SDS011;22056;0.000;0.000;2023-07-29T00:37:32;0.70;;;0.55;;
35977;SDS011;22056;0.000;0.000;2023-07-29T00:39:58;1.40;;;0.50;;
35977;SDS011;22056;0.000;0.000;2023-07-29T00:42:24;1.65;;;0.50;;
35977;SDS011;22056;0.000;0.000;2023-07-29T00:44:50;1.13;;;0.52;;
35977;SDS011;22056;0.000;0.000;2023-07-29T00:47:16;0.57;;;0.47;;
35977;SDS011;22056;0.000;0.000;2023-07-29T00:49:43;1.17;;;0.50;;
35977;SDS011;22056;0.000;0.000;2023-07-29T00:52:10;1.02;;;0.40;;
35977;SDS011;22056;0.000;0.000;2023-07-29T00:54:38;1.02;;;0.40;;
35977;SDS011;22056;0.000;0.000;2023-07-29T00:57:04;0.65;;;0.60;;
35977;SDS011;22056;0.000;0.000;2023-07-29T00:59:30;0.77;;;0.50;;
35977;SDS011;22056;0.000;0.000;2023-07-29T01:01:57;1.02;;;0.63;;
35977;SDS011;22056;0.000;0.000;2023-07-29T01:04:23;0.93;;;0.40;;
35977;SDS011;22056;0.000;0.000;2023-07-29T01:14:27;0.77;;;0.50;;
35977;SDS011;22056;0.000;0.000;2023-07-29T01:16:58;1.23;;;0.30;;
35977;SDS011;22056;0.000;0.000;2023-07-29T01:19:34;0.95;;;0.50;;
35977;SDS011;22056;0.000;0.000;2023-07-29T01:22:03;0.50;;;0.43;;
35977;SDS011;22056;0.000;0.000;2023-07-29T01:24:30;2.13;;;0.60;;
35977;SDS011;22056;0.000;0.000;2023-07-29T01:26:56;0.35;;;0.35;;
35977;SDS011;22056;0.000;0.000;2023-07-29T01:29:22;1.13;;;0.50;;
35977;SDS011;22056;0.000;0.000;2023-07-29T01:31:48;0.77;;;0.40;;
35977;SDS011;22056;0.000;0.000;2023-07-29T01:34:41;0.63;;;0.35;;
35977;SDS011;22056;0.000;0.000;2023-07-29T01:37:05;0.82;;;0.60;;
35977;SDS011;22056;0.000;0.000;2023-07-29T01:39:33;0.50;;;0.40;;
35977;SDS011;22056;0.000;0.000;2023-07-29T01:42:01;0.90;;;0.40;;
35977;SDS011;22056;0.000;0.000;2023-07-29T01:44:27;0.35;;;0.35;;
35977;SDS011;22056;0.000;0.000;2023-07-29T01:46:55;0.30;;;0.30;;
35977;SDS011;22056;0.000;0.000;2023-07-29T01:49:21;1.08;;;0.38;;
35977;SDS011;22056;0.000;0.000;2023-07-29T01:51:47;0.80;;;0.47;;
35977;SDS011;22056;0.000;0.000;2023-07-29T01:54:13;1.15;;;0.30;;
35977;SDS011;22056;0.000;0.000;2023-07-29T01:56:39;0.40;;;0.40;;
35977;SDS011;22056;0.000;0.000;2023-07-29T01:59:05;0.50;;;0.35;;
35977;SDS011;22056;0.000;0.000;2023-07-29T02:01:31;0.52;;;0.30;;
35977;SDS011;22056;0.000;0.000;2023-07-29T02:03:57;0.47;;;0.30;;
35977;SDS011;22056;0.000;0.000;2023-07-29T02:06:24;0.80;;;0.30;;
35977;SDS011;22056;0.000;0.000;2023-07-29T02:08:50;0.63;;;0.30;;
35977;SDS011;22056;0.000;0.000;2023-07-29T02:11:17;0.43;;;0.40;;
35977;SDS011;22056;0.000;0.000;2023-07-29T02:13:45;0.50;;;0.40;;
35977;SDS011;22056;0.000;0.000;2023-07-29T02:16:11;0.30;;;0.30;;
35977;SDS011;22056;0.000;0.000;2023-07-29T02:18:37;0.20;;;0.20;;
35977;SDS011;22056;0.000;0.000;2023-07-29T02:21:03;0.60;;;0.40;;
35977;SDS011;22056;0.000;0.000;2023-07-29T02:23:29;0.77;;;0.40;;
35977;SDS011;22056;0.000;0.000;2023-07-29T02:25:56;0.57;;;0.30;;
35977;SDS011;22056;0.000;0.000;2023-07-29T02:28:22;0.30;;;0.30;;
35977;SDS011;22056;0.000;0.000;2023-07-29T02:30:48;0.30;;;0.20;;
35977;SDS011;22056;0.000;0.000;2023-07-29T02:33:34;0.30;;;0.30;;
35977;SDS011;22056;0.000;0.000;2023-07-29T02:36:00;0.45;;;0.30;;
35977;SDS011;22056;0.000;0.000;2023-07-29T02:38:26;0.43;;;0.38;;
35977;SDS011;22056;0.000;0.000;2023-07-29T02:40:52;0.25;;;0.25;;
35977;SDS011;22056;0.000;0.000;2023-07-29T02:43:18;0.38;;;0.30;;
35977;SDS011;22056;0.000;0.000;2023-07-29T02:45:44;0.35;;;0.32;;
35977;SDS011;22056;0.000;0.000;2023-07-29T02:48:11;1.05;;;0.40;;
35977;SDS011;22056;0.000;0.000;2023-07-29T02:50:37;0.68;;;0.40;;
35977;SDS011;22056;0.000;0.000;2023-07-29T02:53:03;1.13;;;0.40;;
35977;SDS011;22056;0.000;0.000;2023-07-29T02:55:29;0.50;;;0.30;;
35977;SDS011;22056;0.000;0.000;2023-07-29T02:57:55;0.28;;;0.28;;
35977;SDS011;22056;0.000;0.000;2023-07-29T03:00:21;0.30;;;0.30;;
35977;SDS011;22056;0.000;0.000;2023-07-29T03:02:47;0.43;;;0.32;;
35977;SDS011;22056;0.000;0.000;2023-07-29T03:05:13;0.50;;;0.30;;
35977;SDS011;22056;0.000;0.000;2023-07-29T03:07:39;0.30;;;0.30;;
35977;SDS011;22056;0.000;0.000;2023-07-29T03:10:05;0.28;;;0.20;;
35977;SDS011;22056;0.000;0.000;2023-07-29T03:12:32;0.70;;;0.20;;
35977;SDS011;22056;0.000;0.000;2023-07-29T03:14:58;0.20;;;0.20;;
35977;SDS011;22056;0.000;0.000;2023-07-29T03:17:25;0.30;;;0.20;;
35977;SDS011;22056;0.000;0.000;2023-07-29T03:19:51;0.20;;;0.20;;
35977;SDS011;22056;0.000;0.000;2023-07-29T03:22:18;0.28;;;0.20;;
35977;SDS011;22056;0.000;0.000;2023-07-29T03:24:44;0.93;;;0.30;;
35977;SDS011;22056;0.000;0.000;2023-07-29T03:27:10;1.27;;;0.20;;
35977;SDS011;22056;0.000;0.000;2023-07-29T03:29:36;0.40;;;0.30;;
35977;SDS011;22056;0.000;0.000;2023-07-29T03:32:02;0.30;;;0.30;;
35977;SDS011;22056;0.000;0.000;2023-07-29T03:34:28;0.43;;;0.30;;
35977;SDS011;22056;0.000;0.000;2023-07-29T03:36:54;0.28;;;0.28;;
35977;SDS011;22056;0.000;0.000;2023-07-29T03:39:20;0.40;;;0.40;;
35977;SDS011;22056;0.000;0.000;2023-07-29T03:41:47;0.50;;;0.38;;
35977;SDS011;22056;0.000;0.000;2023-07-29T03:44:13;0.40;;;0.30;;
35977;SDS011;22056;0.000;0.000;2023-07-29T03:46:39;0.30;;;0.22;;
35977;SDS011;22056;0.000;0.000;2023-07-29T03:49:05;0.40;;;0.30;;
35977;SDS011;22056;0.000;0.000;2023-07-29T03:51:31;0.25;;;0.25;;
35977;SDS011;22056;0.000;0.000;2023-07-29T03:53:57;0.63;;;0.20;;
35977;SDS011;22056;0.000;0.000;2023-07-29T03:56:23;0.30;;;0.30;;
35977;SDS011;22056;0.000;0.000;2023-07-29T03:58:49;0.20;;;0.20;;
35977;SDS011;22056;0.000;0.000;2023-07-29T04:01:15;0.30;;;0.30;;
35977;SDS011;22056;0.000;0.000;2023-07-29T04:03:42;0.40;;;0.30;;
35977;SDS011;22056;0.000;0.000;2023-07-29T04:06:08;0.40;;;0.30;;
35977;SDS011;22056;0.000;0.000;2023-07-29T04:08:34;0.30;;;0.30;;
35977;SDS011;22056;0.000;0.000;2023-07-29T04:11:00;0.70;;;0.30;;
35977;SDS011;22056;0.000;0.000;2023-07-29T04:13:26;0.30;;;0.20;;
35977;SDS011;22056;0.000;0.000;2023-07-29T04:15:52;0.30;;;0.30;;
35977;SDS011;22056;0.000;0.000;2023-07-29T04:18:19;0.50;;;0.30;;
35977;SDS011;22056;0.000;0.000;2023-07-29T04:20:45;0.45;;;0.28;;
35977;SDS011;22056;0.000;0.000;2023-07-29T04:23:11;0.55;;;0.30;;
35977;SDS011;22056;0.000;0.000;2023-07-29T04:25:37;0.57;;;0.30;;
35977;SDS011;22056;0.000;0.000;2023-07-29T04:28:03;0.35;;;0.20;;
35977;SDS011;22056;0.000;0.000;2023-07-29T04:30:30;0.30;;;0.30;;
35977;SDS011;22056;0.000;0.000;2023-07-29T04:32:56;0.38;;;0.30;;
35977;SDS011;22056;0.000;0.000;2023-07-29T04:35:22;0.25;;;0.25;;
35977;SDS011;22056;0.000;0.000;2023-07-29T04:37:48;0.20;;;0.20;;
35977;SDS011;22056;0.000;0.000;2023-07-29T04:40:14;0.50;;;0.30;;
35977;SDS011;22056;0.000;0.000;2023-07-29T04:42:40;0.30;;;0.30;;
35977;SDS011;22056;0.000;0.000;2023-07-29T04:45:07;0.20;;;0.20;;
35977;SDS011;22056;0.000;0.000;2023-07-29T04:47:33;0.25;;;0.25;;
35977;SDS011;22056;0.000;0.000;2023-07-29T04:49:59;0.50;;;0.30;;
35977;SDS011;22056;0.000;0.000;2023-07-29T04:52:25;0.20;;;0.20;;
35977;SDS011;22056;0.000;0.000;2023-07-29T04:54:51;0.20;;;0.20;;
35977;SDS011;22056;0.000;0.000;2023-07-29T04:57:17;0.32;;;0.30;;
35977;SDS011;22056;0.000;0.000;2023-07-29T04:59:43;0.32;;;0.20;;
35977;SDS011;22056;0.000;0.000;2023-07-29T05:02:09;0.20;;;0.20;;
35977;SDS011;22056;0.000;0.000;2023-07-29T05:04:36;0.20;;;0.20;;
35977;SDS011;22056;0.000;0.000;2023-07-29T05:07:02;0.30;;;0.30;;
35977;SDS011;22056;0.000;0.000;2023-07-29T05:09:28;0.30;;;0.30;;
35977;SDS011;22056;0.000;0.000;2023-07-29T05:11:54;0.50;;;0.20;;
35977;SDS011;22056;0.000;0.000;2023-07-29T05:14:20;0.30;;;0.30;;
35977;SDS011;22056;0.000;0.000;2023-07-29T05:16:47;0.82;;;0.35;;
35977;SDS011;22056;0.000;0.000;2023-07-29T05:19:13;0.40;;;0.20;;
35977;SDS011;22056;0.000;0.000;2023-07-29T05:21:39;0.20;;;0.20;;
35977;SDS011;22056;0.000;0.000;2023-07-29T05:24:05;0.20;;;0.20;;
35977;SDS011;22056;0.000;0.000;2023-07-29T05:26:31;0.57;;;0.20;;
35977;SDS011;22056;0.000;0.000;2023-07-29T05:28:57;0.25;;;0.20;;
35977;SDS011;22056;0.000;0.000;2023-07-29T05:31:24;0.40;;;0.20;;
35977;SDS011;22056;0.000;0.000;2023-07-29T05:33:50;0.52;;;0.20;;
35977;SDS011;22056;0.000;0.000;2023-07-29T05:36:16;0.20;;;0.20;;
35977;SDS011;22056;0.000;0.000;2023-07-29T05:38:42;0.30;;;0.20;;
35977;SDS011;22056;0.000;0.000;2023-07-29T05:41:08;0.35;;;0.25;;
35977;SDS011;22056;0.000;0.000;2023-07-29T05:43:34;0.20;;;0.20;;
35977;SDS011;22056;0.000;0.000;2023-07-29T05:46:00;0.30;;;0.20;;
35977;SDS011;22056;0.000;0.000;2023-07-29T05:48:27;0.28;;;0.28;;
35977;SDS011;22056;0.000;0.000;2023-07-29T05:50:53;0.32;;;0.22;;
35977;SDS011;22056;0.000;0.000;2023-07-29T05:53:19;0.20;;;0.20;;
35977;SDS011;22056;0.000;0.000;2023-07-29T05:55:45;0.20;;;0.20;;
35977;SDS011;22056;0.000;0.000;2023-07-29T05:58:11;0.20;;;0.20;;
35977;SDS011;22056;0.000;0.000;2023-07-29T06:00:37;0.20;;;0.20;;
35977;SDS011;22056;0.000;0.000;2023-07-29T06:03:03;0.38;;;0.20;;
35977;SDS011;22056;0.000;0.000;2023-07-29T06:05:29;0.20;;;0.20;;
35977;SDS011;22056;0.000;0.000;2023-07-29T06:07:55;0.20;;;0.20;;
35977;SDS011;22056;0.000;0.000;2023-07-29T06:10:21;0.30;;;0.30;;
35977;SDS011;22056;0.000;0.000;2023-07-29T06:12:48;0.20;;;0.20;;
35977;SDS011;22056;0.000;0.000;2023-07-29T06:15:14;0.20;;;0.20;;
35977;SDS011;22056;0.000;0.000;2023-07-29T06:17:40;0.20;;;0.20;;
35977;SDS011;22056;0.000;0.000;2023-07-29T06:20:07;0.20;;;0.20;;
35977;SDS011;22056;0.000;0.000;2023-07-29T06:22:33;0.20;;;0.20;;
35977;SDS011;22056;0.000;0.000;2023-07-29T06:24:59;0.47;;;0.22;;
35977;SDS011;22056;0.000;0.000;2023-07-29T06:27:25;0.25;;;0.20;;
35977;SDS011;22056;0.000;0.000;2023-07-29T06:29:51;0.60;;;0.30;;
35977;SDS011;22056;0.000;0.000;2023-07-29T06:32:17;0.30;;;0.30;;
35977;SDS011;22056;0.000;0.000;2023-07-29T06:34:43;0.30;;;0.30;;
35977;SDS011;22056;0.000;0.000;2023-07-29T06:37:09;0.20;;;0.20;;
35977;SDS011;22056;0.000;0.000;2023-07-29T06:39:36;0.20;;;0.20;;
35977;SDS011;22056;0.000;0.000;2023-07-29T06:42:02;0.38;;;0.20;;
35977;SDS011;22056;0.000;0.000;2023-07-29T06:44:28;0.28;;;0.28;;
35977;SDS011;22056;0.000;0.000;2023-07-29T06:46:54;0.30;;;0.30;;
35977;SDS011;22056;0.000;0.000;2023-07-29T06:49:20;0.45;;;0.30;;
35977;SDS011;22056;0.000;0.000;2023-07-29T06:51:46;0.47;;;0.30;;
35977;SDS011;22056;0.000;0.000;2023-07-29T06:54:12;0.85;;;0.30;;
35977;SDS011;22056;0.000;0.000;2023-07-29T06:56:38;0.30;;;0.20;;
35977;SDS011;22056;0.000;0.000;2023-07-29T06:59:05;0.30;;;0.30;;
35977;SDS011;22056;0.000;0.000;2023-07-29T07:01:31;0.20;;;0.20;;
35977;SDS011;22056;0.000;0.000;2023-07-29T07:03:57;0.30;;;0.30;;
35977;SDS011;22056;0.000;0.000;2023-07-29T07:06:23;1.38;;;0.30;;
35977;SDS011;22056;0.000;0.000;2023-07-29T07:08:50;0.45;;;0.30;;
35977;SDS011;22056;0.000;0.000;2023-07-29T07:11:16;0.30;;;0.30;;
35977;SDS011;22056;0.000;0.000;2023-07-29T07:13:42;0.30;;;0.30;;
35977;SDS011;22056;0.000;0.000;2023-07-29T07:16:09;0.32;;;0.30;;
35977;SDS011;22056;0.000;0.000;2023-07-29T07:18:35;0.47;;;0.30;;
35977;SDS011;22056;0.000;0.000;2023-07-29T07:21:01;0.20;;;0.20;;
35977;SDS011;22056;0.000;0.000;2023-07-29T07:23:27;0.68;;;0.40;;
35977;SDS011;22056;0.000;0.000;2023-07-29T07:25:53;0.40;;;0.35;;
35977;SDS011;22056;0.000;0.000;2023-07-29T07:28:19;0.40;;;0.40;;
35977;SDS011;22056;0.000;0.000;2023-07-29T07:30:45;0.30;;;0.30;;
35977;SDS011;22056;0.000;0.000;2023-07-29T07:33:11;0.68;;;0.50;;
35977;SDS011;22056;0.000;0.000;2023-07-29T07:35:37;0.45;;;0.40;;
35977;SDS011;22056;0.000;0.000;2023-07-29T07:38:04;0.55;;;0.40;;
35977;SDS011;22056;0.000;0.000;2023-07-29T07:40:32;0.93;;;0.50;;
35977;SDS011;22056;0.000;0.000;2023-07-29T07:42:59;0.40;;;0.40;;
35977;SDS011;22056;0.000;0.000;2023-07-29T07:45:25;0.20;;;0.20;;
35977;SDS011;22056;0.000;0.000;2023-07-29T07:47:51;1.65;;;0.30;;
35977;SDS011;22056;0.000;0.000;2023-07-29T07:50:20;0.50;;;0.40;;
35977;SDS011;22056;0.000;0.000;2023-07-29T07:52:46;0.40;;;0.40;;
35977;SDS011;22056;0.000;0.000;2023-07-29T07:55:13;0.55;;;0.38;;
35977;SDS011;22056;0.000;0.000;2023-07-29T07:57:39;0.40;;;0.20;;
35977;SDS011;22056;0.000;0.000;2023-07-29T08:00:05;0.35;;;0.30;;
35977;SDS011;22056;0.000;0.000;2023-07-29T08:02:31;0.30;;;0.30;;
35977;SDS011;22056;0.000;0.000;2023-07-29T08:04:57;0.20;;;0.20;;
35977;SDS011;22056;0.000;0.000;2023-07-29T08:07:23;0.30;;;0.30;;
35977;SDS011;22056;0.000;0.000;2023-07-29T08:09:50;0.30;;;0.30;;
35977;SDS011;22056;0.000;0.000;2023-07-29T08:12:17;0.30;;;0.30;;
35977;SDS011;22056;0.000;0.000;2023-07-29T08:14:43;0.30;;;0.30;;
35977;SDS011;22056;0.000;0.000;2023-07-29T08:17:09;0.30;;;0.30;;
35977;SDS011;22056;0.000;0.000;2023-07-29T08:19:35;0.30;;;0.30;;
35977;SDS011;22056;0.000;0.000;2023-07-29T08:22:02;0.40;;;0.20;;
35977;SDS011;22056;0.000;0.000;2023-07-29T08:24:29;0.25;;;0.20;;
35977;SDS011;22056;0.000;0.000;2023-07-29T08:26:55;0.20;;;0.20;;
35977;SDS011;22056;0.000;0.000;2023-07-29T08:29:21;0.20;;;0.20;;
35977;SDS011;22056;0.000;0.000;2023-07-29T08:31:47;0.30;;;0.30;;
35977;SDS011;22056;0.000;0.000;2023-07-29T08:34:13;0.28;;;0.28;;
35977;SDS011;22056;0.000;0.000;2023-07-29T08:36:39;0.28;;;0.22;;
35977;SDS011;22056;0.000;0.000;2023-07-29T08:39:06;0.30;;;0.30;;
35977;SDS011;22056;0.000;0.000;2023-07-29T08:41:37;0.45;;;0.25;;
35977;SDS011;22056;0.000;0.000;2023-07-29T08:44:12;0.40;;;0.40;;
35977;SDS011;22056;0.000;0.000;2023-07-29T08:46:41;0.32;;;0.20;;
35977;SDS011;22056;0.000;0.000;2023-07-29T08:49:08;0.55;;;0.28;;
35977;SDS011;22056;0.000;0.000;2023-07-29T08:51:34;0.30;;;0.30;;
35977;SDS011;22056;0.000;0.000;2023-07-29T08:54:00;0.30;;;0.30;;
35977;SDS011;22056;0.000;0.000;2023-07-29T08:56:27;0.25;;;0.25;;
35977;SDS011;22056;0.000;0.000;2023-07-29T08:58:55;0.30;;;0.30;;
35977;SDS011;22056;0.000;0.000;2023-07-29T09:01:21;0.80;;;0.30;;
35977;SDS011;22056;0.000;0.000;2023-07-29T09:03:47;0.20;;;0.20;;
35977;SDS011;22056;0.000;0.000;2023-07-29T09:06:14;0.55;;;0.30;;
35977;SDS011;22056;0.000;0.000;2023-07-29T09:08:40;0.30;;;0.30;;
35977;SDS011;22056;0.000;0.000;2023-07-29T09:11:06;0.30;;;0.20;;
35977;SDS011;22056;0.000;0.000;2023-07-29T09:13:33;0.30;;;0.30;;
35977;SDS011;22056;0.000;0.000;2023-07-29T09:15:59;0.20;;;0.20;;
35977;SDS011;22056;0.000;0.000;2023-07-29T09:18:25;0.20;;;0.20;;
35977;SDS011;22056;0.000;0.000;2023-07-29T09:20:52;0.20;;;0.20;;
35977;SDS011;22056;0.000;0.000;2023-07-29T09:23:19;0.40;;;0.30;;
35977;SDS011;22056;0.000;0.000;2023-07-29T09:25:48;0.30;;;0.20;;
35977;SDS011;22056;0.000;0.000;2023-07-29T09:28:15;0.30;;;0.20;;
35977;SDS011;22056;0.000;0.000;2023-07-29T09:30:45;0.20;;;0.20;;
35977;SDS011;22056;0.000;0.000;2023-07-29T09:33:12;0.30;;;0.30;;
35977;SDS011;22056;0.000;0.000;2023-07-29T09:35:38;0.20;;;0.20;;
35977;SDS011;22056;0.000;0.000;2023-07-29T09:38:05;0.28;;;0.28;;
35977;SDS011;22056;0.000;0.000;2023-07-29T09:40:35;0.40;;;0.30;;
35977;SDS011;22056;0.000;0.000;2023-07-29T09:43:02;0.28;;;0.28;;
35977;SDS011;22056;0.000;0.000;2023-07-29T09:45:29;0.50;;;0.20;;
35977;SDS011;22056;0.000;0.000;2023-07-29T09:47:56;0.20;;;0.20;;
35977;SDS011;22056;0.000;0.000;2023-07-29T09:50:24;0.30;;;0.30;;
35977;SDS011;22056;0.000;0.000;2023-07-29T09:52:50;0.20;;;0.20;;
35977;SDS011;22056;0.000;0.000;2023-07-29T09:55:17;0.30;;;0.30;;
35977;SDS011;22056;0.000;0.000;2023-07-29T09:57:44;0.50;;;0.20;;
35977;SDS011;22056;0.000;0.000;2023-07-29T10:00:10;0.20;;;0.20;;
35977;SDS011;22056;0.000;0.000;2023-07-29T10:02:40;0.28;;;0.28;;
35977;SDS011;22056;0.000;0.000;2023-07-29T10:05:07;0.20;;;0.20;;
35977;SDS011;22056;0.000;0.000;2023-07-29T10:07:37;0.20;;;0.20;;
35977;SDS011;22056;0.000;0.000;2023-07-29T10:10:04;0.20;;;0.20;;
35977;SDS011;22056;0.000;0.000;2023-07-29T10:12:31;0.93;;;0.38;;
35977;SDS011;22056;0.000;0.000;2023-07-29T10:15:00;0.20;;;0.20;;
35977;SDS011;22056;0.000;0.000;2023-07-29T10:17:26;0.38;;;0.30;;
35977;SDS011;22056;0.000;0.000;2023-07-29T10:19:53;0.30;;;0.30;;
35977;SDS011;22056;0.000;0.000;2023-07-29T10:22:22;1.20;;;0.30;;
35977;SDS011;22056;0.000;0.000;2023-07-29T10:24:50;0.28;;;0.20;;
35977;SDS011;22056;0.000;0.000;2023-07-29T10:27:17;0.30;;;0.30;;
35977;SDS011;22056;0.000;0.000;2023-07-29T10:29:44;0.20;;;0.20;;
35977;SDS011;22056;0.000;0.000;2023-07-29T10:32:11;0.20;;;0.20;;
35977;SDS011;22056;0.000;0.000;2023-07-29T10:34:37;0.20;;;0.20;;
35977;SDS011;22056;0.000;0.000;2023-07-29T10:37:04;0.20;;;0.20;;
35977;SDS011;22056;0.000;0.000;2023-07-29T10:39:38;0.30;;;0.30;;
35977;SDS011;22056;0.000;0.000;2023-07-29T10:42:05;0.30;;;0.30;;
35977;SDS011;22056;0.000;0.000;2023-07-29T10:47:14;0.22;;;0.22;;
35977;SDS011;22056;0.000;0.000;2023-07-29T10:49:40;0.30;;;0.30;;
35977;SDS011;22056;0.000;0.000;2023-07-29T10:52:06;0.30;;;0.30;;
35977;SDS011;22056;0.000;0.000;2023-07-29T10:54:53;0.30;;;0.30;;
35977;SDS011;22056;0.000;0.000;2023-07-29T10:57:35;0.50;;;0.30;;
35977;SDS011;22056;0.000;0.000;2023-07-29T11:00:02;0.30;;;0.30;;
35977;SDS011;22056;0.000;0.000;2023-07-29T11:02:32;0.15;;;0.15;;
35977;SDS011;22056;0.000;0.000;2023-07-29T11:04:59;0.25;;;0.25;;
35977;SDS011;22056;0.000;0.000;2023-07-29T11:07:25;0.20;;;0.20;;
35977;SDS011;22056;0.000;0.000;2023-07-29T11:09:53;0.35;;;0.32;;
35977;SDS011;22056;0.000;0.000;2023-07-29T11:12:41;0.30;;;0.30;;
35977;SDS011;22056;0.000;0.000;2023-07-29T11:20:18;0.20;;;0.20;;
35977;SDS011;22056;0.000;0.000;2023-07-29T11:22:44;0.20;;;0.20;;
35977;SDS011;22056;0.000;0.000;2023-07-29T11:25:11;0.40;;;0.40;;
35977;SDS011;22056;0.000;0.000;2023-07-29T11:27:38;0.30;;;0.30;;
35977;SDS011;22056;0.000;0.000;2023-07-29T11:30:05;0.75;;;0.30;;
35977;SDS011;22056;0.000;0.000;2023-07-29T11:32:32;0.95;;;0.28;;
35977;SDS011;22056;0.000;0.000;2023-07-29T11:35:02;0.20;;;0.20;;
35977;SDS011;22056;0.000;0.000;2023-07-29T11:37:28;0.25;;;0.25;;
35977;SDS011;22056;0.000;0.000;2023-07-29T11:39:54;0.30;;;0.30;;
35977;SDS011;22056;0.000;0.000;2023-07-29T11:42:21;0.20;;;0.20;;
35977;SDS011;22056;0.000;0.000;2023-07-29T11:44:47;0.20;;;0.20;;
35977;SDS011;22056;0.000;0.000;2023-07-29T11:47:13;0.20;;;0.20;;
35977;SDS011;22056;0.000;0.000;2023-07-29T11:49:39;0.70;;;0.20;;
35977;SDS011;22056;0.000;0.000;2023-07-29T11:52:09;0.45;;;0.30;;
35977;SDS011;22056;0.000;0.000;2023-07-29T11:54:36;0.20;;;0.20;;
35977;SDS011;22056;0.000;0.000;2023-07-29T11:57:08;0.20;;;0.20;;
35977;SDS011;22056;0.000;0.000;2023-07-29T11:59:36;0.25;;;0.20;;
35977;SDS011;22056;0.000;0.000;2023-07-29T12:02:05;0.30;;;0.30;;
35977;SDS011;22056;0.000;0.000;2023-07-29T12:04:32;0.30;;;0.30;;
35977;SDS011;22056;0.000;0.000;2023-07-29T12:06:59;0.30;;;0.30;;
35977;SDS011;22056;0.000;0.000;2023-07-29T12:09:26;0.25;;;0.25;;
35977;SDS011;22056;0.000;0.000;2023-07-29T12:11:53;0.43;;;0.30;;
35977;SDS011;22056;0.000;0.000;2023-07-29T12:14:19;0.22;;;0.22;;
35977;SDS011;22056;0.000;0.000;2023-07-29T12:16:47;0.30;;;0.30;;
35977;SDS011;22056;0.000;0.000;2023-07-29T12:19:14;0.30;;;0.30;;
35977;SDS011;22056;0.000;0.000;2023-07-29T12:21:42;1.27;;;0.30;;
35977;SDS011;22056;0.000;0.000;2023-07-29T12:24:08;0.40;;;0.30;;
35977;SDS011;22056;0.000;0.000;2023-07-29T12:26:37;0.30;;;0.30;;
35977;SDS011;22056;0.000;0.000;2023-07-29T12:29:13;2.15;;;0.40;;
35977;SDS011;22056;0.000;0.000;2023-07-29T12:31:40;0.30;;;0.30;;
35977;SDS011;22056;0.000;0.000;2023-07-29T12:34:06;0.30;;;0.30;;
35977;SDS011;22056;0.000;0.000;2023-07-29T12:36:42;0.30;;;0.30;;
35977;SDS011;22056;0.000;0.000;2023-07-29T12:39:15;0.40;;;0.40;;
35977;SDS011;22056;0.000;0.000;2023-07-29T12:41:42;0.73;;;0.43;;
35977;SDS011;22056;0.000;0.000;2023-07-29T12:44:08;0.80;;;0.40;;
35977;SDS011;22056;0.000;0.000;2023-07-29T12:46:34;0.30;;;0.30;;
35977;SDS011;22056;0.000;0.000;2023-07-29T12:49:00;0.63;;;0.30;;
35977;SDS011;22056;0.000;0.000;2023-07-29T12:51:27;0.38;;;0.35;;
35977;SDS011;22056;0.000;0.000;2023-07-29T12:53:55;0.47;;;0.40;;
35977;SDS011;22056;0.000;0.000;2023-07-29T12:56:21;0.30;;;0.30;;
35977;SDS011;22056;0.000;0.000;2023-07-29T12:58:48;1.85;;;0.30;;
35977;SDS011;22056;0.000;0.000;2023-07-29T13:01:14;0.40;;;0.40;;
35977;SDS011;22056;0.000;0.000;2023-07-29T13:03:44;0.40;;;0.40;;
35977;SDS011;22056;0.000;0.000;2023-07-29T13:06:10;0.30;;;0.30;;
35977;SDS011;22056;0.000;0.000;2023-07-29T13:08:36;0.30;;;0.30;;
35977;SDS011;22056;0.000;0.000;2023-07-29T13:11:03;0.63;;;0.45;;
35977;SDS011;22056;0.000;0.000;2023-07-29T13:13:29;0.60;;;0.50;;
35977;SDS011;22056;0.000;0.000;2023-07-29T13:15:55;0.55;;;0.38;;
35977;SDS011;22056;0.000;0.000;2023-07-29T13:18:21;0.45;;;0.30;;
35977;SDS011;22056;0.000;0.000;2023-07-29T13:20:47;0.43;;;0.40;;
35977;SDS011;22056;0.000;0.000;2023-07-29T13:23:14;0.40;;;0.30;;
35977;SDS011;22056;0.000;0.000;2023-07-29T13:25:40;0.40;;;0.40;;
35977;SDS011;22056;0.000;0.000;2023-07-29T13:28:07;0.30;;;0.30;;
35977;SDS011;22056;0.000;0.000;2023-07-29T13:30:33;0.40;;;0.30;;
35977;SDS011;22056;0.000;0.000;2023-07-29T13:32:59;1.48;;;0.30;;
35977;SDS011;22056;0.000;0.000;2023-07-29T13:35:25;0.60;;;0.30;;
35977;SDS011;22056;0.000;0.000;2023-07-29T13:37:51;0.40;;;0.40;;
35977;SDS011;22056;0.000;0.000;2023-07-29T13:40:17;0.40;;;0.30;;
35977;SDS011;22056;0.000;0.000;2023-07-29T13:42:43;0.60;;;0.30;;
35977;SDS011;22056;0.000;0.000;2023-07-29T13:45:10;1.85;;;0.50;;
35977;SDS011;22056;0.000;0.000;2023-07-29T13:47:36;0.50;;;0.50;;
35977;SDS011;22056;0.000;0.000;2023-07-29T13:50:02;0.43;;;0.40;;
35977;SDS011;22056;0.000;0.000;2023-07-29T13:52:29;0.40;;;0.40;;
35977;SDS011;22056;0.000;0.000;2023-07-29T13:54:55;0.30;;;0.30;;
35977;SDS011;22056;0.000;0.000;2023-07-29T13:57:21;1.48;;;0.40;;
35977;SDS011;22056;0.000;0.000;2023-07-29T13:59:47;0.85;;;0.30;;
35977;SDS011;22056;0.000;0.000;2023-07-29T14:02:13;0.30;;;0.30;;
35977;SDS011;22056;0.000;0.000;2023-07-29T14:04:39;0.30;;;0.30;;
35977;SDS011;22056;0.000;0.000;2023-07-29T14:07:05;0.40;;;0.28;;
35977;SDS011;22056;0.000;0.000;2023-07-29T14:09:32;0.30;;;0.30;;
35977;SDS011;22056;0.000;0.000;2023-07-29T14:11:58;0.20;;;0.20;;
35977;SDS011;22056;0.000;0.000;2023-07-29T14:14:24;0.20;;;0.20;;
35977;SDS011;22056;0.000;0.000;2023-07-29T14:16:50;0.40;;;0.30;;
35977;SDS011;22056;0.000;0.000;2023-07-29T14:19:16;0.75;;;0.35;;
35977;SDS011;22056;0.000;0.000;2023-07-29T14:21:42;1.75;;;0.40;;
35977;SDS011;22056;0.000;0.000;2023-07-29T14:24:08;0.40;;;0.30;;
35977;SDS011;22056;0.000;0.000;2023-07-29T14:26:34;0.30;;;0.30;;
35977;SDS011;22056;0.000;0.000;2023-07-29T14:29:00;0.30;;;0.30;;
35977;SDS011;22056;0.000;0.000;2023-07-29T14:31:26;0.30;;;0.30;;
35977;SDS011;22056;0.000;0.000;2023-07-29T14:33:53;0.20;;;0.20;;
35977;SDS011;22056;0.000;0.000;2023-07-29T14:36:19;0.35;;;0.35;;
35977;SDS011;22056;0.000;0.000;2023-07-29T14:38:45;0.40;;;0.30;;
35977;SDS011;22056;0.000;0.000;2023-07-29T14:41:11;0.30;;;0.30;;
35977;SDS011;22056;0.000;0.000;2023-07-29T14:43:37;0.40;;;0.30;;
35977;SDS011;22056;0.000;0.000;2023-07-29T14:46:04;0.30;;;0.30;;
35977;SDS011;22056;0.000;0.000;2023-07-29T14:48:31;0.20;;;0.20;;
35977;SDS011;22056;0.000;0.000;2023-07-29T14:50:57;0.30;;;0.30;;
35977;SDS011;22056;0.000;0.000;2023-07-29T14:53:23;0.17;;;0.17;;
35977;SDS011;22056;0.000;0.000;2023-07-29T14:55:50;0.30;;;0.30;;
35977;SDS011;22056;0.000;0.000;2023-07-29T14:58:16;0.30;;;0.30;;
35977;SDS011;22056;0.000;0.000;2023-07-29T15:00:42;0.40;;;0.40;;
35977;SDS011;22056;0.000;0.000;2023-07-29T15:03:08;0.32;;;0.30;;
35977;SDS011;22056;0.000;0.000;2023-07-29T15:05:34;0.28;;;0.28;;
35977;SDS011;22056;0.000;0.000;2023-07-29T15:08:01;0.30;;;0.20;;
35977;SDS011;22056;0.000;0.000;2023-07-29T15:10:27;0.32;;;0.30;;
35977;SDS011;22056;0.000;0.000;2023-07-29T15:12:53;0.30;;;0.30;;